createdAt,value
2019-06-26T00:01:20.700Z,0.60
2019-06-26T00:04:07.070Z,0.60
2019-06-26T00:06:33.317Z,0.78
2019-06-26T00:08:59.926Z,1.07
2019-06-26T00:11:26.300Z,0.60
2019-06-26T00:13:52.500Z,0.70
2019-06-26T00:16:18.764Z,0.62
2019-06-26T00:18:46.725Z,0.50
2019-06-26T00:21:13.212Z,0.50
2019-06-26T00:23:39.712Z,0.50
2019-06-26T00:26:06.213Z,0.70
2019-06-26T00:28:32.363Z,0.30
2019-06-26T00:30:58.738Z,0.37
2019-06-26T00:33:28.335Z,0.62
2019-06-26T00:35:54.548Z,0.55
2019-06-26T00:38:21.184Z,0.50
2019-06-26T00:40:47.443Z,0.90
2019-06-26T00:43:13.825Z,0.60
2019-06-26T00:45:40.171Z,0.65
2019-06-26T00:48:06.750Z,0.93
2019-06-26T00:50:33.255Z,0.30
2019-06-26T00:52:59.895Z,0.50
2019-06-26T00:55:26.428Z,0.60
2019-06-26T00:57:52.914Z,0.70
2019-06-26T01:00:21.669Z,0.80
2019-06-26T01:02:47.785Z,0.75
2019-06-26T01:05:14.388Z,0.57
2019-06-26T01:07:40.985Z,1.00
2019-06-26T01:10:08.279Z,0.78
2019-06-26T01:12:34.915Z,0.95
2019-06-26T01:15:01.399Z,0.60
2019-06-26T01:17:27.590Z,0.47
2019-06-26T01:19:54.082Z,0.60
2019-06-26T01:22:20.249Z,0.50
2019-06-26T01:24:46.712Z,0.60
2019-06-26T01:27:12.843Z,0.47
2019-06-26T01:29:40.661Z,0.42
2019-06-26T01:32:07.230Z,0.40
2019-06-26T01:34:33.749Z,0.40
2019-06-26T01:37:00.520Z,0.60
2019-06-26T01:39:26.775Z,0.57
2019-06-26T01:41:53.044Z,0.62
2019-06-26T01:44:19.167Z,0.20
2019-06-26T01:46:45.864Z,0.50
2019-06-26T01:49:12.095Z,0.68
2019-06-26T01:51:38.636Z,0.57
2019-06-26T01:54:05.321Z,0.40
2019-06-26T01:56:31.840Z,0.75
2019-06-26T01:58:58.055Z,0.53
2019-06-26T02:01:24.704Z,0.80
2019-06-26T02:03:50.925Z,0.50
2019-06-26T02:06:17.489Z,0.72
2019-06-26T02:08:43.617Z,0.50
2019-06-26T02:11:10.197Z,0.47
2019-06-26T02:13:36.723Z,0.65
2019-06-26T02:16:08.220Z,0.30
2019-06-26T02:18:41.180Z,0.45
2019-06-26T02:21:07.895Z,1.12
2019-06-26T02:23:34.450Z,0.78
2019-06-26T02:26:01.125Z,0.98
2019-06-26T02:28:27.728Z,0.65
2019-06-26T02:30:54.079Z,0.65
2019-06-26T02:33:20.814Z,0.55
2019-06-26T02:35:47.027Z,1.00
2019-06-26T02:38:13.537Z,0.90
2019-06-26T02:40:39.999Z,0.82
2019-06-26T02:43:07.202Z,0.80
2019-06-26T02:45:34.162Z,0.80
2019-06-26T02:48:00.665Z,0.88
2019-06-26T02:50:27.245Z,0.93
2019-06-26T02:53:15.363Z,0.60
2019-06-26T02:55:42.003Z,1.05
2019-06-26T02:58:08.510Z,1.10
2019-06-26T03:00:34.622Z,0.60
2019-06-26T03:03:01.196Z,0.57
2019-06-26T03:05:27.777Z,0.80
2019-06-26T03:07:54.205Z,0.62
2019-06-26T03:10:20.602Z,1.32
2019-06-26T03:12:47.464Z,0.70
2019-06-26T03:15:14.362Z,1.10
2019-06-26T03:17:54.004Z,1.30
2019-06-26T03:20:09.445Z,0.88
2019-06-26T03:22:36.021Z,0.98
2019-06-26T03:25:03.712Z,1.05
2019-06-26T03:27:30.180Z,0.90
2019-06-26T03:29:58.300Z,0.85
2019-06-26T03:32:24.864Z,0.60
2019-06-26T03:34:51.006Z,0.97
2019-06-26T03:37:17.514Z,0.50
2019-06-26T03:39:43.672Z,0.78
2019-06-26T03:42:09.848Z,0.95
2019-06-26T03:44:37.631Z,0.98
2019-06-26T03:47:06.652Z,0.90
2019-06-26T03:49:33.204Z,0.62
2019-06-26T03:51:59.870Z,0.90
2019-06-26T03:54:27.767Z,0.68
2019-06-26T03:56:54.276Z,0.90
2019-06-26T03:59:20.436Z,0.85
2019-06-26T04:01:47.006Z,0.55
2019-06-26T04:04:13.309Z,0.50
2019-06-26T04:06:39.708Z,0.88
2019-06-26T04:09:06.421Z,0.53
2019-06-26T04:11:33.142Z,0.72
2019-06-26T04:13:59.628Z,0.80
2019-06-26T04:16:26.275Z,0.72
2019-06-26T04:18:52.479Z,0.72
2019-06-26T04:21:19.024Z,1.07
2019-06-26T04:23:45.292Z,0.80
2019-06-26T04:26:11.782Z,0.72
2019-06-26T04:28:38.284Z,0.78
2019-06-26T04:31:04.459Z,0.85
2019-06-26T04:33:30.924Z,0.93
2019-06-26T04:35:57.517Z,0.55
2019-06-26T04:38:24.028Z,0.60
2019-06-26T04:40:50.692Z,0.55
2019-06-26T04:43:36.671Z,0.62
2019-06-26T04:46:03.315Z,0.50
2019-06-26T04:48:29.976Z,0.72
2019-06-26T04:50:56.780Z,1.15
2019-06-26T04:53:23.057Z,1.35
2019-06-26T04:55:50.024Z,0.88
2019-06-26T04:58:16.586Z,1.07
2019-06-26T05:00:43.160Z,1.12
2019-06-26T05:03:11.452Z,1.32
2019-06-26T05:05:44.596Z,0.55
2019-06-26T05:08:11.361Z,0.88
2019-06-26T05:10:38.002Z,1.30
2019-06-26T05:13:04.509Z,1.35
2019-06-26T05:15:31.306Z,1.27
2019-06-26T05:17:57.913Z,1.22
2019-06-26T05:20:24.822Z,0.80
2019-06-26T05:22:51.191Z,1.57
2019-06-26T05:25:17.814Z,1.15
2019-06-26T05:27:44.538Z,1.07
2019-06-26T05:30:11.427Z,1.07
2019-06-26T05:32:38.024Z,1.00
2019-06-26T05:35:05.537Z,0.90
2019-06-26T05:37:32.109Z,0.72
2019-06-26T05:40:18.549Z,1.00
2019-06-26T05:42:45.085Z,0.90
2019-06-26T05:45:11.931Z,1.02
2019-06-26T05:47:38.754Z,1.27
2019-06-26T05:50:07.439Z,0.78
2019-06-26T05:52:34.011Z,1.02
2019-06-26T05:55:00.847Z,1.12
2019-06-26T05:57:27.399Z,1.67
2019-06-26T05:59:53.891Z,1.80
2019-06-26T06:02:20.487Z,1.57
2019-06-26T06:04:47.120Z,1.95
2019-06-26T06:07:13.416Z,1.80
2019-06-26T06:09:39.762Z,1.30
2019-06-26T06:12:06.017Z,1.25
2019-06-26T06:14:32.504Z,1.17
2019-06-26T06:16:59.160Z,1.02
2019-06-26T06:19:25.769Z,1.00
2019-06-26T06:21:52.256Z,1.30
2019-06-26T06:24:18.806Z,1.25
2019-06-26T06:26:47.338Z,1.10
2019-06-26T06:29:13.978Z,0.95
2019-06-26T06:31:40.205Z,0.70
2019-06-26T06:34:06.556Z,0.78
2019-06-26T06:36:32.886Z,1.02
2019-06-26T06:38:59.497Z,1.10
2019-06-26T06:41:26.228Z,0.72
2019-06-26T06:43:52.717Z,0.90
2019-06-26T06:46:19.865Z,1.05
2019-06-26T06:48:46.095Z,0.90
2019-06-26T06:51:12.504Z,1.30
2019-06-26T06:53:38.850Z,0.90
2019-06-26T06:56:05.866Z,1.05
2019-06-26T06:58:32.562Z,1.25
2019-06-26T07:00:59.163Z,1.00
2019-06-26T07:03:25.740Z,0.90
2019-06-26T07:05:52.505Z,1.20
2019-06-26T07:08:20.705Z,0.60
2019-06-26T07:10:47.295Z,0.70
2019-06-26T07:13:15.799Z,0.80
2019-06-26T07:15:42.687Z,1.10
2019-06-26T07:18:09.292Z,0.80
2019-06-26T07:20:36.744Z,0.80
2019-06-26T07:23:03.315Z,0.80
2019-06-26T07:25:29.992Z,0.70
2019-06-26T07:27:56.320Z,0.82
2019-06-26T07:30:23.270Z,0.88
2019-06-26T07:32:49.930Z,0.78
2019-06-26T07:35:16.444Z,0.90
2019-06-26T07:37:42.966Z,1.00
2019-06-26T07:40:09.729Z,1.27
2019-06-26T07:42:36.434Z,0.85
2019-06-26T07:45:03.608Z,1.12
2019-06-26T07:47:42.572Z,1.02
2019-06-26T07:49:59.600Z,1.02
2019-06-26T07:52:26.215Z,0.68
2019-06-26T07:54:52.871Z,1.00
2019-06-26T07:57:19.380Z,0.80
2019-06-26T07:59:45.852Z,0.70
2019-06-26T08:02:12.428Z,0.95
2019-06-26T08:04:38.908Z,0.85
2019-06-26T08:07:05.392Z,0.60
2019-06-26T08:09:31.853Z,0.90
2019-06-26T08:11:58.202Z,0.98
2019-06-26T08:14:24.422Z,0.90
2019-06-26T08:16:51.152Z,1.10
2019-06-26T08:19:17.282Z,1.47
2019-06-26T08:21:46.488Z,1.67
2019-06-26T08:24:11.658Z,1.40
2019-06-26T08:26:38.147Z,1.05
2019-06-26T08:29:04.478Z,1.60
2019-06-26T08:31:30.960Z,1.10
2019-06-26T08:33:57.579Z,0.75
2019-06-26T08:36:24.170Z,1.00
2019-06-26T08:38:50.656Z,1.30
2019-06-26T08:41:18.059Z,1.10
2019-06-26T08:43:45.025Z,1.57
2019-06-26T08:46:13.045Z,1.10
2019-06-26T08:48:40.634Z,1.40
2019-06-26T08:51:07.550Z,1.80
2019-06-26T08:53:34.016Z,1.42
2019-06-26T08:56:00.793Z,1.67
2019-06-26T08:58:26.979Z,0.90
2019-06-26T09:00:53.747Z,0.90
2019-06-26T09:03:20.461Z,1.07
2019-06-26T09:05:48.702Z,1.00
2019-06-26T09:08:15.970Z,1.35
2019-06-26T09:10:44.859Z,0.98
2019-06-26T09:13:10.749Z,1.10
2019-06-26T09:15:37.298Z,1.47
2019-06-26T09:18:03.907Z,1.00
2019-06-26T09:20:32.634Z,1.20
2019-06-26T09:22:59.370Z,0.98
2019-06-26T09:25:25.823Z,0.65
2019-06-26T09:27:52.330Z,1.10
2019-06-26T09:30:25.661Z,1.55
2019-06-26T09:32:52.027Z,0.93
2019-06-26T09:35:18.554Z,1.25
2019-06-26T09:37:45.045Z,1.52
2019-06-26T09:40:12.369Z,1.80
2019-06-26T09:42:38.505Z,1.87
2019-06-26T09:45:06.246Z,1.65
2019-06-26T09:47:32.470Z,2.15
2019-06-26T09:49:58.990Z,1.32
2019-06-26T09:52:25.280Z,1.25
2019-06-26T09:54:51.957Z,2.10
2019-06-26T09:57:19.054Z,1.82
2019-06-26T09:59:45.580Z,1.52
2019-06-26T10:02:12.068Z,1.30
2019-06-26T10:04:38.577Z,2.10
2019-06-26T10:07:05.538Z,1.22
2019-06-26T10:09:32.057Z,2.30
2019-06-26T10:11:58.922Z,1.80
2019-06-26T10:14:41.020Z,2.10
2019-06-26T10:16:53.622Z,1.35
2019-06-26T10:19:20.556Z,2.62
2019-06-26T10:21:46.691Z,1.75
2019-06-26T10:24:13.219Z,1.30
2019-06-26T10:26:39.517Z,1.55
2019-06-26T10:29:06.211Z,2.00
2019-06-26T10:31:32.827Z,1.60
2019-06-26T10:33:59.298Z,1.57
2019-06-26T10:36:25.893Z,1.77
2019-06-26T10:38:52.635Z,2.02
2019-06-26T10:41:19.225Z,1.70
2019-06-26T10:43:45.746Z,1.50
2019-06-26T10:46:12.433Z,1.35
2019-06-26T10:48:38.892Z,1.70
2019-06-26T10:51:05.051Z,1.22
2019-06-26T10:53:31.804Z,1.10
2019-06-26T10:55:58.418Z,1.17
2019-06-26T10:58:28.583Z,1.00
2019-06-26T11:00:55.316Z,1.70
2019-06-26T11:03:21.918Z,1.40
2019-06-26T11:05:48.259Z,1.42
2019-06-26T11:08:14.600Z,1.60
2019-06-26T11:10:41.169Z,1.32
2019-06-26T11:13:07.974Z,1.57
2019-06-26T11:15:34.211Z,1.52
2019-06-26T11:18:00.983Z,2.47
2019-06-26T11:20:27.282Z,1.62
2019-06-26T11:22:53.981Z,1.80
2019-06-26T11:25:20.958Z,1.40
2019-06-26T11:27:47.354Z,1.30
2019-06-26T11:30:14.121Z,1.40
2019-06-26T11:32:40.524Z,1.50
2019-06-26T11:35:06.948Z,1.10
2019-06-26T11:37:33.491Z,1.80
2019-06-26T11:39:59.975Z,1.57
2019-06-26T11:42:26.123Z,1.30
2019-06-26T11:44:52.569Z,1.60
2019-06-26T11:47:19.041Z,1.02
2019-06-26T11:49:58.968Z,1.40
2019-06-26T11:52:13.772Z,0.95
2019-06-26T11:54:40.313Z,0.90
2019-06-26T11:57:06.784Z,1.42
2019-06-26T11:59:33.415Z,1.20
2019-06-26T12:01:59.888Z,1.35
2019-06-26T12:04:26.623Z,1.50
2019-06-26T12:06:52.984Z,1.42
2019-06-26T12:09:19.592Z,1.32
2019-06-26T12:11:49.813Z,1.80
2019-06-26T12:14:17.180Z,1.57
2019-06-26T12:16:43.806Z,1.25
2019-06-26T12:19:30.287Z,2.52
2019-06-26T12:21:56.556Z,2.20
2019-06-26T12:24:26.327Z,2.08
2019-06-26T12:26:51.153Z,1.75
2019-06-26T12:29:17.803Z,1.55
2019-06-26T12:31:44.108Z,1.40
2019-06-26T12:34:10.613Z,1.60
2019-06-26T12:36:36.789Z,1.75
2019-06-26T12:39:04.968Z,1.60
2019-06-26T12:41:31.387Z,1.25
2019-06-26T12:43:57.534Z,1.72
2019-06-26T12:46:24.242Z,1.32
2019-06-26T12:48:50.559Z,1.75
2019-06-26T12:51:16.953Z,0.98
2019-06-26T12:53:43.739Z,1.32
2019-06-26T12:56:10.183Z,2.25
2019-06-26T12:58:36.848Z,1.95
2019-06-26T13:01:03.013Z,2.30
2019-06-26T13:03:29.466Z,2.22
2019-06-26T13:05:55.836Z,2.42
2019-06-26T13:08:22.415Z,2.25
2019-06-26T13:10:50.485Z,2.33
2019-06-26T13:13:18.624Z,1.90
2019-06-26T13:15:45.425Z,1.85
2019-06-26T13:18:11.999Z,1.37
2019-06-26T13:20:52.114Z,2.65
2019-06-26T13:23:07.180Z,3.00
2019-06-26T13:25:34.012Z,2.35
2019-06-26T13:28:00.491Z,2.62
2019-06-26T13:30:28.921Z,1.82
2019-06-26T13:32:55.690Z,2.05
2019-06-26T13:35:24.273Z,1.80
2019-06-26T13:37:50.234Z,1.40
2019-06-26T13:40:16.995Z,1.85
2019-06-26T13:42:43.500Z,1.70
2019-06-26T13:45:10.278Z,1.98
2019-06-26T13:47:36.756Z,1.37
2019-06-26T13:50:04.717Z,1.85
2019-06-26T13:52:31.237Z,1.60
2019-06-26T13:54:57.891Z,2.02
2019-06-26T13:57:24.574Z,1.80
2019-06-26T13:59:52.784Z,2.25
2019-06-26T14:02:20.017Z,1.32
2019-06-26T14:05:06.784Z,1.60
2019-06-26T14:07:33.143Z,1.30
2019-06-26T14:09:59.613Z,1.50
2019-06-26T14:12:25.759Z,1.40
2019-06-26T14:14:57.833Z,1.65
2019-06-26T14:17:22.383Z,1.77
2019-06-26T14:19:48.603Z,1.67
2019-06-26T14:22:15.134Z,1.80
2019-06-26T14:24:41.605Z,1.60
2019-06-26T14:27:08.112Z,1.67
2019-06-26T14:29:34.302Z,2.12
2019-06-26T14:32:00.555Z,1.40
2019-06-26T14:34:28.090Z,1.02
2019-06-26T14:36:54.496Z,1.30
2019-06-26T14:39:21.266Z,2.00
2019-06-26T14:41:47.644Z,1.30
2019-06-26T14:44:14.116Z,1.70
2019-06-26T14:46:40.949Z,1.30
2019-06-26T14:49:07.109Z,2.17
2019-06-26T14:51:43.969Z,1.45
2019-06-26T14:54:02.007Z,1.90
2019-06-26T14:56:28.346Z,0.90
2019-06-26T14:58:54.874Z,1.27
2019-06-26T15:01:21.511Z,1.45
2019-06-26T15:03:49.579Z,1.40
2019-06-26T15:06:17.268Z,1.22
2019-06-26T15:08:44.291Z,1.40
2019-06-26T15:11:11.322Z,0.98
2019-06-26T15:13:37.942Z,1.40
2019-06-26T15:16:04.402Z,1.80
2019-06-26T15:18:30.554Z,1.47
2019-06-26T15:20:57.242Z,1.57
2019-06-26T15:23:24.954Z,1.70
2019-06-26T15:25:51.486Z,1.35
2019-06-26T15:28:18.322Z,1.67
2019-06-26T15:30:45.146Z,1.82
2019-06-26T15:33:11.892Z,1.70
2019-06-26T15:35:38.400Z,1.60
2019-06-26T15:38:04.922Z,1.30
2019-06-26T15:40:31.487Z,2.17
2019-06-26T15:42:57.940Z,1.70
2019-06-26T15:45:24.211Z,2.15
2019-06-26T15:47:50.411Z,1.30
2019-06-26T15:50:17.461Z,1.70
2019-06-26T15:52:45.231Z,1.20
2019-06-26T15:55:11.599Z,1.50
2019-06-26T15:57:38.465Z,1.62
2019-06-26T16:00:05.664Z,1.17
2019-06-26T16:02:32.029Z,1.20
2019-06-26T16:04:58.621Z,1.20
2019-06-26T16:07:25.224Z,1.00
2019-06-26T16:09:52.080Z,0.80
2019-06-26T16:12:18.672Z,1.00
2019-06-26T16:14:45.174Z,0.70
2019-06-26T16:17:21.581Z,0.95
2019-06-26T16:19:47.941Z,0.98
2019-06-26T16:22:30.571Z,1.10
2019-06-26T16:24:43.141Z,0.90
2019-06-26T16:27:09.502Z,0.85
2019-06-26T16:29:36.434Z,1.10
2019-06-26T16:32:02.983Z,1.00
2019-06-26T16:34:29.522Z,0.70
2019-06-26T16:36:56.214Z,1.02
2019-06-26T16:39:23.077Z,0.78
2019-06-26T16:41:49.674Z,0.93
2019-06-26T16:44:16.216Z,1.12
2019-06-26T16:46:43.660Z,1.40
2019-06-26T16:49:12.601Z,1.22
2019-06-26T16:51:39.068Z,1.25
2019-06-26T16:54:05.629Z,1.40
2019-06-26T16:56:32.144Z,1.17
2019-06-26T16:58:58.725Z,1.10
2019-06-26T17:01:25.893Z,0.95
2019-06-26T17:03:52.378Z,0.90
2019-06-26T17:06:19.065Z,0.98
2019-06-26T17:08:45.604Z,1.10
2019-06-26T17:11:12.460Z,1.50
2019-06-26T17:13:39.154Z,0.80
2019-06-26T17:16:05.844Z,1.45
2019-06-26T17:18:32.585Z,1.22
2019-06-26T17:20:59.502Z,1.20
2019-06-26T17:23:26.045Z,1.25
2019-06-26T17:25:52.449Z,0.68
2019-06-26T17:28:19.109Z,0.80
2019-06-26T17:30:45.678Z,0.85
2019-06-26T17:33:12.307Z,0.85
2019-06-26T17:35:39.122Z,1.07
2019-06-26T17:38:05.803Z,1.40
2019-06-26T17:40:32.632Z,1.60
2019-06-26T17:43:11.770Z,0.65
2019-06-26T17:45:27.358Z,0.90
2019-06-26T17:47:54.412Z,1.22
2019-06-26T17:50:21.153Z,1.95
2019-06-26T17:52:47.863Z,1.35
2019-06-26T17:55:14.989Z,1.27
2019-06-26T17:57:41.617Z,1.50
2019-06-26T18:00:08.762Z,0.95
2019-06-26T18:02:35.390Z,1.00
2019-06-26T18:05:02.806Z,1.50
2019-06-26T18:07:29.344Z,1.42
2019-06-26T18:09:56.059Z,1.12
2019-06-26T18:12:22.684Z,0.85
2019-06-26T18:14:48.921Z,1.00
2019-06-26T18:17:21.992Z,1.55
2019-06-26T18:19:43.702Z,1.32
2019-06-26T18:22:10.117Z,1.50
2019-06-26T18:24:36.881Z,1.60
2019-06-26T18:27:03.813Z,1.62
2019-06-26T18:29:30.124Z,1.25
2019-06-26T18:31:56.627Z,1.05
2019-06-26T18:34:23.152Z,0.88
2019-06-26T18:36:49.816Z,0.85
2019-06-26T18:39:16.229Z,1.15
2019-06-26T18:41:42.712Z,1.10
2019-06-26T18:44:08.990Z,0.95
2019-06-26T18:46:35.512Z,1.27
2019-06-26T18:49:02.398Z,1.02
2019-06-26T18:51:28.986Z,0.85
2019-06-26T18:53:55.194Z,1.00
2019-06-26T18:56:22.186Z,0.90
2019-06-26T18:58:48.381Z,1.07
2019-06-26T19:01:14.873Z,0.50
2019-06-26T19:03:41.126Z,0.47
2019-06-26T19:06:07.856Z,1.25
2019-06-26T19:08:34.783Z,0.70
2019-06-26T19:11:01.040Z,1.00
2019-06-26T19:13:27.631Z,0.82
2019-06-26T19:15:54.292Z,0.57
2019-06-26T19:18:20.871Z,1.65
2019-06-26T19:20:47.623Z,0.88
2019-06-26T19:23:13.884Z,0.98
2019-06-26T19:25:40.681Z,0.53
2019-06-26T19:28:07.268Z,0.85
2019-06-26T19:30:33.940Z,0.68
2019-06-26T19:33:00.682Z,0.57
2019-06-26T19:35:27.303Z,0.90
2019-06-26T19:37:54.047Z,0.65
2019-06-26T19:40:23.790Z,0.80
2019-06-26T19:42:50.180Z,0.93
2019-06-26T19:45:17.369Z,1.20
2019-06-26T19:47:46.526Z,1.05
2019-06-26T19:50:13.545Z,0.88
2019-06-26T19:52:40.548Z,0.82
2019-06-26T19:55:09.000Z,0.85
2019-06-26T19:57:35.668Z,0.42
2019-06-26T20:00:03.678Z,1.10
2019-06-26T20:02:30.833Z,0.90
2019-06-26T20:04:57.902Z,0.85
2019-06-26T20:07:24.814Z,1.07
2019-06-26T20:09:51.481Z,0.60
2019-06-26T20:12:18.323Z,0.85
2019-06-26T20:14:45.179Z,0.75
2019-06-26T20:17:12.455Z,0.60
2019-06-26T20:19:39.105Z,0.75
2019-06-26T20:22:06.125Z,0.95
2019-06-26T20:24:43.621Z,1.07
2019-06-26T20:27:01.488Z,1.27
2019-06-26T20:29:28.799Z,0.68
2019-06-26T20:31:55.276Z,0.95
2019-06-26T20:34:22.168Z,0.90
2019-06-26T20:36:49.327Z,0.70
2019-06-26T20:39:16.005Z,0.60
2019-06-26T20:42:01.215Z,0.82
2019-06-26T20:44:28.255Z,0.47
2019-06-26T20:46:55.243Z,0.70
2019-06-26T20:49:52.748Z,0.80
2019-06-26T20:52:10.915Z,0.88
2019-06-26T20:54:37.973Z,0.70
2019-06-26T20:57:04.588Z,0.90
2019-06-26T20:59:31.275Z,0.88
2019-06-26T21:01:57.967Z,0.80
2019-06-26T21:04:25.095Z,0.50
2019-06-26T21:06:51.943Z,0.68
2019-06-26T21:09:18.739Z,0.70
2019-06-26T21:11:45.914Z,0.95
2019-06-26T21:14:13.132Z,0.40
2019-06-26T21:16:42.969Z,0.70
2019-06-26T21:19:10.106Z,0.60
2019-06-26T21:21:37.439Z,0.85
2019-06-26T21:24:24.150Z,0.82
2019-06-26T21:26:51.526Z,0.40
2019-06-26T21:29:18.830Z,0.60
2019-06-26T21:31:46.122Z,0.57
2019-06-26T21:34:13.055Z,0.60
2019-06-26T21:37:01.582Z,0.62
2019-06-26T21:39:27.843Z,0.70
2019-06-26T21:41:54.736Z,0.55
2019-06-26T21:44:20.985Z,0.57
2019-06-26T21:46:47.626Z,1.47
2019-06-26T21:49:14.184Z,0.60
2019-06-26T21:51:40.802Z,0.50
2019-06-26T21:54:07.081Z,0.62
2019-06-26T21:56:33.681Z,0.70
2019-06-26T21:58:59.843Z,0.50
2019-06-26T22:01:26.945Z,0.37
2019-06-26T22:03:53.631Z,0.70
2019-06-26T22:06:20.495Z,0.72
2019-06-26T22:08:46.813Z,0.53
2019-06-26T22:11:13.140Z,0.60
2019-06-26T22:13:40.795Z,0.55
2019-06-26T22:16:07.479Z,0.75
2019-06-26T22:18:34.346Z,0.57
2019-06-26T22:21:00.560Z,0.57
2019-06-26T22:23:27.419Z,0.60
2019-06-26T22:25:54.105Z,0.80
2019-06-26T22:28:20.896Z,0.68
2019-06-26T22:30:47.061Z,0.37
2019-06-26T22:33:13.680Z,0.50
2019-06-26T22:35:41.419Z,0.80
2019-06-26T22:38:07.641Z,0.65
2019-06-26T22:40:34.527Z,0.85
2019-06-26T22:43:00.777Z,0.70
2019-06-26T22:45:27.389Z,0.57
2019-06-26T22:47:53.996Z,0.42
2019-06-26T22:50:20.593Z,0.88
2019-06-26T22:52:46.837Z,0.80
2019-06-26T22:55:13.657Z,0.33
2019-06-26T22:57:40.523Z,0.45
2019-06-26T23:00:11.454Z,0.70
2019-06-26T23:02:38.237Z,0.80
2019-06-26T23:05:05.346Z,0.68
2019-06-26T23:07:31.608Z,0.40
2019-06-26T23:09:59.353Z,0.35
2019-06-26T23:12:25.638Z,0.75
2019-06-26T23:14:52.092Z,0.68
2019-06-26T23:17:19.765Z,0.70
2019-06-26T23:19:45.951Z,0.47
2019-06-26T23:22:12.435Z,0.62
2019-06-26T23:24:39.074Z,0.95
2019-06-26T23:27:05.664Z,0.62
2019-06-26T23:29:32.173Z,0.70
2019-06-26T23:31:58.397Z,0.75
2019-06-26T23:34:25.027Z,0.70
2019-06-26T23:36:51.233Z,0.57
2019-06-26T23:39:17.445Z,0.75
2019-06-26T23:41:44.054Z,0.95
2019-06-26T23:44:10.281Z,0.93
2019-06-26T23:46:36.945Z,1.00
2019-06-26T23:49:03.768Z,0.60
2019-06-26T23:51:30.582Z,0.50
2019-06-26T23:53:56.720Z,0.57
2019-06-26T23:56:36.439Z,0.93
2019-06-26T23:58:51.700Z,0.80
